sensor_id;sensor_type;location;lat;lon;timestamp;P1;durP1;ratioP1;P2;durP2;ratioP2
15946;SDS011;8072;52.554;7.966;2022-11-20T00:01:07;32.47;;;16.17;;
15946;SDS011;8072;52.554;7.966;2022-11-20T00:03:35;31.60;;;16.70;;
15946;SDS011;8072;52.554;7.966;2022-11-20T00:06:02;29.70;;;16.40;;
15946;SDS011;8072;52.554;7.966;2022-11-20T00:08:30;32.03;;;16.83;;
15946;SDS011;8072;52.554;7.966;2022-11-20T00:10:56;38.80;;;17.90;;
15946;SDS011;8072;52.554;7.966;2022-11-20T00:13:21;38.47;;;17.60;;
15946;SDS011;8072;52.554;7.966;2022-11-20T00:15:48;38.87;;;17.70;;
15946;SDS011;8072;52.554;7.966;2022-11-20T00:18:13;33.90;;;18.23;;
15946;SDS011;8072;52.554;7.966;2022-11-20T00:20:39;34.87;;;17.87;;
15946;SDS011;8072;52.554;7.966;2022-11-20T00:23:05;38.07;;;17.00;;
15946;SDS011;8072;52.554;7.966;2022-11-20T00:25:33;36.73;;;18.20;;
15946;SDS011;8072;52.554;7.966;2022-11-20T00:28:00;35.03;;;17.47;;
15946;SDS011;8072;52.554;7.966;2022-11-20T00:30:26;35.50;;;16.87;;
15946;SDS011;8072;52.554;7.966;2022-11-20T00:32:52;32.20;;;17.03;;
15946;SDS011;8072;52.554;7.966;2022-11-20T00:35:17;29.27;;;16.10;;
15946;SDS011;8072;52.554;7.966;2022-11-20T00:37:43;26.00;;;14.93;;
15946;SDS011;8072;52.554;7.966;2022-11-20T00:40:09;29.33;;;14.30;;
15946;SDS011;8072;52.554;7.966;2022-11-20T00:42:35;26.73;;;14.43;;
15946;SDS011;8072;52.554;7.966;2022-11-20T00:45:01;23.83;;;14.53;;
15946;SDS011;8072;52.554;7.966;2022-11-20T00:47:27;24.53;;;14.97;;
15946;SDS011;8072;52.554;7.966;2022-11-20T00:49:52;26.63;;;14.80;;
15946;SDS011;8072;52.554;7.966;2022-11-20T00:52:18;26.97;;;13.53;;
15946;SDS011;8072;52.554;7.966;2022-11-20T00:54:44;22.53;;;13.27;;
15946;SDS011;8072;52.554;7.966;2022-11-20T00:57:10;24.10;;;13.33;;
15946;SDS011;8072;52.554;7.966;2022-11-20T00:59:36;23.70;;;13.20;;
15946;SDS011;8072;52.554;7.966;2022-11-20T01:02:02;25.57;;;13.50;;
15946;SDS011;8072;52.554;7.966;2022-11-20T01:04:27;23.97;;;14.23;;
15946;SDS011;8072;52.554;7.966;2022-11-20T01:06:54;22.97;;;12.80;;
15946;SDS011;8072;52.554;7.966;2022-11-20T01:09:19;21.53;;;13.60;;
15946;SDS011;8072;52.554;7.966;2022-11-20T01:11:45;22.23;;;14.03;;
15946;SDS011;8072;52.554;7.966;2022-11-20T01:14:12;22.07;;;13.27;;
15946;SDS011;8072;52.554;7.966;2022-11-20T01:16:41;22.63;;;13.27;;
15946;SDS011;8072;52.554;7.966;2022-11-20T01:19:16;25.47;;;14.13;;
15946;SDS011;8072;52.554;7.966;2022-11-20T01:21:45;24.80;;;13.87;;
15946;SDS011;8072;52.554;7.966;2022-11-20T01:24:13;22.57;;;12.87;;
15946;SDS011;8072;52.554;7.966;2022-11-20T01:26:41;25.67;;;13.37;;
15946;SDS011;8072;52.554;7.966;2022-11-20T01:29:13;22.13;;;13.57;;
15946;SDS011;8072;52.554;7.966;2022-11-20T01:31:40;21.53;;;13.23;;
15946;SDS011;8072;52.554;7.966;2022-11-20T01:34:09;19.77;;;12.27;;
15946;SDS011;8072;52.554;7.966;2022-11-20T01:36:37;23.43;;;12.47;;
15946;SDS011;8072;52.554;7.966;2022-11-20T01:39:10;24.47;;;13.43;;
15946;SDS011;8072;52.554;7.966;2022-11-20T01:41:38;22.27;;;13.73;;
15946;SDS011;8072;52.554;7.966;2022-11-20T01:47:23;19.37;;;11.47;;
15946;SDS011;8072;52.554;7.966;2022-11-20T01:50:06;20.33;;;11.40;;
15946;SDS011;8072;52.554;7.966;2022-11-20T01:52:41;21.53;;;12.23;;
15946;SDS011;8072;52.554;7.966;2022-11-20T01:55:15;20.87;;;11.60;;
15946;SDS011;8072;52.554;7.966;2022-11-20T01:57:44;18.63;;;11.43;;
15946;SDS011;8072;52.554;7.966;2022-11-20T02:00:13;18.37;;;10.80;;
15946;SDS011;8072;52.554;7.966;2022-11-20T02:03:02;22.40;;;11.50;;
15946;SDS011;8072;52.554;7.966;2022-11-20T02:05:35;22.53;;;11.93;;
15946;SDS011;8072;52.554;7.966;2022-11-20T02:08:21;19.27;;;11.97;;
15946;SDS011;8072;52.554;7.966;2022-11-20T02:10:48;20.80;;;11.67;;
15946;SDS011;8072;52.554;7.966;2022-11-20T02:13:14;23.17;;;11.70;;
15946;SDS011;8072;52.554;7.966;2022-11-20T02:15:59;22.80;;;12.53;;
15946;SDS011;8072;52.554;7.966;2022-11-20T02:18:26;27.53;;;12.40;;
15946;SDS011;8072;52.554;7.966;2022-11-20T02:20:59;23.67;;;13.27;;
15946;SDS011;8072;52.554;7.966;2022-11-20T02:26:22;22.33;;;12.43;;
15946;SDS011;8072;52.554;7.966;2022-11-20T02:28:49;19.63;;;11.70;;
15946;SDS011;8072;52.554;7.966;2022-11-20T02:31:15;23.93;;;13.17;;
15946;SDS011;8072;52.554;7.966;2022-11-20T02:33:41;25.73;;;13.10;;
15946;SDS011;8072;52.554;7.966;2022-11-20T02:36:08;23.70;;;12.30;;
15946;SDS011;8072;52.554;7.966;2022-11-20T02:38:37;21.50;;;11.47;;
15946;SDS011;8072;52.554;7.966;2022-11-20T02:41:03;24.37;;;13.60;;
15946;SDS011;8072;52.554;7.966;2022-11-20T02:43:29;23.17;;;12.23;;
15946;SDS011;8072;52.554;7.966;2022-11-20T02:45:55;19.53;;;11.70;;
15946;SDS011;8072;52.554;7.966;2022-11-20T02:48:20;19.53;;;12.03;;
15946;SDS011;8072;52.554;7.966;2022-11-20T02:50:46;25.47;;;13.07;;
15946;SDS011;8072;52.554;7.966;2022-11-20T02:53:12;23.73;;;13.20;;
15946;SDS011;8072;52.554;7.966;2022-11-20T02:55:38;21.03;;;12.27;;
15946;SDS011;8072;52.554;7.966;2022-11-20T02:58:04;21.27;;;12.80;;
15946;SDS011;8072;52.554;7.966;2022-11-20T03:00:29;22.80;;;12.53;;
15946;SDS011;8072;52.554;7.966;2022-11-20T03:02:55;24.57;;;12.70;;
15946;SDS011;8072;52.554;7.966;2022-11-20T03:05:21;23.23;;;13.57;;
15946;SDS011;8072;52.554;7.966;2022-11-20T03:07:47;22.77;;;13.13;;
15946;SDS011;8072;52.554;7.966;2022-11-20T03:10:13;21.00;;;12.73;;
15946;SDS011;8072;52.554;7.966;2022-11-20T03:12:39;21.30;;;12.50;;
15946;SDS011;8072;52.554;7.966;2022-11-20T03:15:05;18.67;;;11.77;;
15946;SDS011;8072;52.554;7.966;2022-11-20T03:17:31;18.97;;;11.77;;
15946;SDS011;8072;52.554;7.966;2022-11-20T03:19:57;19.73;;;11.77;;
15946;SDS011;8072;52.554;7.966;2022-11-20T03:22:23;19.37;;;11.20;;
15946;SDS011;8072;52.554;7.966;2022-11-20T03:24:48;18.77;;;11.83;;
15946;SDS011;8072;52.554;7.966;2022-11-20T03:27:14;21.50;;;11.47;;
15946;SDS011;8072;52.554;7.966;2022-11-20T03:29:40;19.07;;;11.57;;
15946;SDS011;8072;52.554;7.966;2022-11-20T03:32:06;21.37;;;11.27;;
15946;SDS011;8072;52.554;7.966;2022-11-20T03:34:32;18.53;;;11.07;;
15946;SDS011;8072;52.554;7.966;2022-11-20T03:36:58;21.70;;;11.53;;
15946;SDS011;8072;52.554;7.966;2022-11-20T03:39:23;17.10;;;10.13;;
15946;SDS011;8072;52.554;7.966;2022-11-20T03:41:49;19.33;;;11.23;;
15946;SDS011;8072;52.554;7.966;2022-11-20T03:44:15;18.70;;;10.50;;
15946;SDS011;8072;52.554;7.966;2022-11-20T03:46:41;20.27;;;11.10;;
15946;SDS011;8072;52.554;7.966;2022-11-20T03:49:12;19.77;;;10.50;;
15946;SDS011;8072;52.554;7.966;2022-11-20T03:51:38;17.17;;;11.03;;
15946;SDS011;8072;52.554;7.966;2022-11-20T03:54:07;18.60;;;10.73;;
15946;SDS011;8072;52.554;7.966;2022-11-20T03:56:35;19.00;;;11.40;;
15946;SDS011;8072;52.554;7.966;2022-11-20T03:59:03;16.80;;;10.40;;
15946;SDS011;8072;52.554;7.966;2022-11-20T04:01:31;19.77;;;10.57;;
15946;SDS011;8072;52.554;7.966;2022-11-20T04:03:59;18.30;;;10.30;;
15946;SDS011;8072;52.554;7.966;2022-11-20T04:06:28;19.77;;;10.63;;
15946;SDS011;8072;52.554;7.966;2022-11-20T04:08:56;18.00;;;10.73;;
15946;SDS011;8072;52.554;7.966;2022-11-20T04:11:24;15.67;;;9.63;;
15946;SDS011;8072;52.554;7.966;2022-11-20T04:13:52;19.13;;;11.37;;
15946;SDS011;8072;52.554;7.966;2022-11-20T04:16:19;19.17;;;10.27;;
15946;SDS011;8072;52.554;7.966;2022-11-20T04:18:46;18.80;;;10.27;;
15946;SDS011;8072;52.554;7.966;2022-11-20T04:21:14;18.57;;;10.70;;
15946;SDS011;8072;52.554;7.966;2022-11-20T04:23:40;18.43;;;10.40;;
15946;SDS011;8072;52.554;7.966;2022-11-20T04:26:07;21.73;;;10.50;;
15946;SDS011;8072;52.554;7.966;2022-11-20T04:28:34;19.10;;;11.03;;
15946;SDS011;8072;52.554;7.966;2022-11-20T04:31:10;17.83;;;10.50;;
15946;SDS011;8072;52.554;7.966;2022-11-20T04:33:38;16.77;;;9.90;;
15946;SDS011;8072;52.554;7.966;2022-11-20T04:36:05;17.90;;;10.57;;
15946;SDS011;8072;52.554;7.966;2022-11-20T04:38:45;17.03;;;9.70;;
15946;SDS011;8072;52.554;7.966;2022-11-20T04:41:17;19.33;;;10.37;;
15946;SDS011;8072;52.554;7.966;2022-11-20T04:43:48;15.63;;;9.17;;
15946;SDS011;8072;52.554;7.966;2022-11-20T04:46:18;17.43;;;10.63;;
15946;SDS011;8072;52.554;7.966;2022-11-20T04:48:46;19.63;;;10.30;;
15946;SDS011;8072;52.554;7.966;2022-11-20T04:51:12;19.23;;;10.60;;
15946;SDS011;8072;52.554;7.966;2022-11-20T04:53:38;16.57;;;9.87;;
15946;SDS011;8072;52.554;7.966;2022-11-20T04:56:05;16.57;;;9.37;;
15946;SDS011;8072;52.554;7.966;2022-11-20T04:58:33;16.10;;;10.97;;
15946;SDS011;8072;52.554;7.966;2022-11-20T05:01:07;20.60;;;10.67;;
15946;SDS011;8072;52.554;7.966;2022-11-20T05:03:41;14.67;;;9.10;;
15946;SDS011;8072;52.554;7.966;2022-11-20T05:06:08;16.40;;;9.93;;
15946;SDS011;8072;52.554;7.966;2022-11-20T05:08:35;17.70;;;10.60;;
15946;SDS011;8072;52.554;7.966;2022-11-20T05:11:08;19.23;;;10.47;;
15946;SDS011;8072;52.554;7.966;2022-11-20T05:13:36;15.80;;;9.93;;
15946;SDS011;8072;52.554;7.966;2022-11-20T05:16:03;16.93;;;9.80;;
15946;SDS011;8072;52.554;7.966;2022-11-20T05:18:56;15.80;;;9.93;;
15946;SDS011;8072;52.554;7.966;2022-11-20T05:21:22;16.63;;;10.23;;
15946;SDS011;8072;52.554;7.966;2022-11-20T05:23:48;19.70;;;10.37;;
15946;SDS011;8072;52.554;7.966;2022-11-20T05:26:22;16.17;;;9.10;;
15946;SDS011;8072;52.554;7.966;2022-11-20T05:28:48;16.17;;;9.73;;
15946;SDS011;8072;52.554;7.966;2022-11-20T05:31:17;16.63;;;9.17;;
15946;SDS011;8072;52.554;7.966;2022-11-20T05:33:45;17.03;;;9.27;;
15946;SDS011;8072;52.554;7.966;2022-11-20T05:36:12;13.73;;;8.80;;
15946;SDS011;8072;52.554;7.966;2022-11-20T05:38:39;14.77;;;8.57;;
15946;SDS011;8072;52.554;7.966;2022-11-20T05:41:07;16.97;;;9.10;;
15946;SDS011;8072;52.554;7.966;2022-11-20T05:43:34;17.10;;;9.13;;
15946;SDS011;8072;52.554;7.966;2022-11-20T05:46:01;19.20;;;10.43;;
15946;SDS011;8072;52.554;7.966;2022-11-20T05:48:27;17.53;;;9.37;;
15946;SDS011;8072;52.554;7.966;2022-11-20T05:50:53;17.93;;;10.30;;
15946;SDS011;8072;52.554;7.966;2022-11-20T05:53:19;16.20;;;10.40;;
15946;SDS011;8072;52.554;7.966;2022-11-20T05:55:45;17.93;;;10.13;;
15946;SDS011;8072;52.554;7.966;2022-11-20T05:58:10;24.60;;;11.57;;
15946;SDS011;8072;52.554;7.966;2022-11-20T06:00:36;19.23;;;10.07;;
15946;SDS011;8072;52.554;7.966;2022-11-20T06:03:02;20.07;;;10.40;;
15946;SDS011;8072;52.554;7.966;2022-11-20T06:05:28;20.13;;;10.30;;
15946;SDS011;8072;52.554;7.966;2022-11-20T06:07:54;17.23;;;10.20;;
15946;SDS011;8072;52.554;7.966;2022-11-20T06:10:20;19.43;;;10.70;;
15946;SDS011;8072;52.554;7.966;2022-11-20T06:12:46;17.80;;;10.17;;
15946;SDS011;8072;52.554;7.966;2022-11-20T06:15:12;17.37;;;10.70;;
15946;SDS011;8072;52.554;7.966;2022-11-20T06:17:38;19.17;;;10.83;;
15946;SDS011;8072;52.554;7.966;2022-11-20T06:20:04;20.37;;;10.23;;
15946;SDS011;8072;52.554;7.966;2022-11-20T06:22:30;18.70;;;10.30;;
15946;SDS011;8072;52.554;7.966;2022-11-20T06:24:57;17.23;;;9.83;;
15946;SDS011;8072;52.554;7.966;2022-11-20T06:27:23;19.20;;;10.27;;
15946;SDS011;8072;52.554;7.966;2022-11-20T06:29:49;16.93;;;9.93;;
15946;SDS011;8072;52.554;7.966;2022-11-20T06:32:15;16.83;;;9.53;;
15946;SDS011;8072;52.554;7.966;2022-11-20T06:34:40;16.33;;;10.03;;
15946;SDS011;8072;52.554;7.966;2022-11-20T06:37:06;18.70;;;9.70;;
15946;SDS011;8072;52.554;7.966;2022-11-20T06:39:32;18.23;;;10.73;;
15946;SDS011;8072;52.554;7.966;2022-11-20T06:41:58;20.23;;;11.23;;
15946;SDS011;8072;52.554;7.966;2022-11-20T06:44:24;18.17;;;11.20;;
15946;SDS011;8072;52.554;7.966;2022-11-20T06:46:50;16.60;;;9.87;;
15946;SDS011;8072;52.554;7.966;2022-11-20T06:49:15;20.63;;;9.97;;
15946;SDS011;8072;52.554;7.966;2022-11-20T06:51:41;17.43;;;10.00;;
15946;SDS011;8072;52.554;7.966;2022-11-20T06:54:07;18.93;;;10.37;;
15946;SDS011;8072;52.554;7.966;2022-11-20T06:56:33;18.03;;;10.90;;
15946;SDS011;8072;52.554;7.966;2022-11-20T06:58:58;16.47;;;10.10;;
15946;SDS011;8072;52.554;7.966;2022-11-20T07:01:29;18.60;;;10.20;;
15946;SDS011;8072;52.554;7.966;2022-11-20T07:03:55;17.50;;;9.37;;
15946;SDS011;8072;52.554;7.966;2022-11-20T07:06:21;17.33;;;10.13;;
15946;SDS011;8072;52.554;7.966;2022-11-20T07:08:47;17.27;;;10.03;;
15946;SDS011;8072;52.554;7.966;2022-11-20T07:11:15;18.17;;;9.90;;
15946;SDS011;8072;52.554;7.966;2022-11-20T07:13:40;21.63;;;10.67;;
15946;SDS011;8072;52.554;7.966;2022-11-20T07:16:07;17.37;;;10.33;;
15946;SDS011;8072;52.554;7.966;2022-11-20T07:18:33;18.70;;;10.90;;
15946;SDS011;8072;52.554;7.966;2022-11-20T07:21:00;18.60;;;10.77;;
15946;SDS011;8072;52.554;7.966;2022-11-20T07:23:30;16.60;;;10.00;;
15946;SDS011;8072;52.554;7.966;2022-11-20T07:25:56;19.17;;;10.40;;
15946;SDS011;8072;52.554;7.966;2022-11-20T07:28:22;18.47;;;10.23;;
15946;SDS011;8072;52.554;7.966;2022-11-20T07:30:51;18.70;;;10.73;;
15946;SDS011;8072;52.554;7.966;2022-11-20T07:33:18;19.23;;;10.33;;
15946;SDS011;8072;52.554;7.966;2022-11-20T07:35:44;21.03;;;10.93;;
15946;SDS011;8072;52.554;7.966;2022-11-20T07:38:10;15.37;;;9.90;;
15946;SDS011;8072;52.554;7.966;2022-11-20T07:40:36;17.13;;;10.47;;
15946;SDS011;8072;52.554;7.966;2022-11-20T07:43:01;14.73;;;9.07;;
15946;SDS011;8072;52.554;7.966;2022-11-20T07:45:27;18.10;;;9.63;;
15946;SDS011;8072;52.554;7.966;2022-11-20T07:47:53;15.23;;;8.43;;
15946;SDS011;8072;52.554;7.966;2022-11-20T07:50:19;16.23;;;8.87;;
15946;SDS011;8072;52.554;7.966;2022-11-20T07:52:45;14.83;;;8.97;;
15946;SDS011;8072;52.554;7.966;2022-11-20T07:55:11;16.13;;;9.47;;
15946;SDS011;8072;52.554;7.966;2022-11-20T07:57:37;15.83;;;9.93;;
15946;SDS011;8072;52.554;7.966;2022-11-20T08:00:03;13.70;;;8.07;;
15946;SDS011;8072;52.554;7.966;2022-11-20T08:02:32;14.97;;;8.23;;
15946;SDS011;8072;52.554;7.966;2022-11-20T08:04:57;15.20;;;8.10;;
15946;SDS011;8072;52.554;7.966;2022-11-20T08:07:23;13.83;;;8.73;;
15946;SDS011;8072;52.554;7.966;2022-11-20T08:09:49;16.83;;;8.83;;
15946;SDS011;8072;52.554;7.966;2022-11-20T08:12:16;16.87;;;8.97;;
15946;SDS011;8072;52.554;7.966;2022-11-20T08:15:03;13.80;;;8.93;;
15946;SDS011;8072;52.554;7.966;2022-11-20T08:17:29;17.60;;;10.00;;
15946;SDS011;8072;52.554;7.966;2022-11-20T08:19:56;16.87;;;9.37;;
15946;SDS011;8072;52.554;7.966;2022-11-20T08:22:21;16.97;;;9.60;;
15946;SDS011;8072;52.554;7.966;2022-11-20T08:24:47;16.67;;;9.23;;
15946;SDS011;8072;52.554;7.966;2022-11-20T08:27:13;14.37;;;8.67;;
15946;SDS011;8072;52.554;7.966;2022-11-20T08:29:39;13.77;;;8.63;;
15946;SDS011;8072;52.554;7.966;2022-11-20T08:32:05;15.50;;;9.77;;
15946;SDS011;8072;52.554;7.966;2022-11-20T08:34:30;14.63;;;9.20;;
15946;SDS011;8072;52.554;7.966;2022-11-20T08:36:56;14.90;;;9.30;;
15946;SDS011;8072;52.554;7.966;2022-11-20T08:39:22;16.70;;;9.07;;
15946;SDS011;8072;52.554;7.966;2022-11-20T08:41:48;15.00;;;9.37;;
15946;SDS011;8072;52.554;7.966;2022-11-20T08:44:13;15.50;;;8.80;;
15946;SDS011;8072;52.554;7.966;2022-11-20T08:46:40;14.20;;;8.70;;
15946;SDS011;8072;52.554;7.966;2022-11-20T08:49:09;14.30;;;8.63;;
15946;SDS011;8072;52.554;7.966;2022-11-20T08:51:37;13.17;;;8.10;;
15946;SDS011;8072;52.554;7.966;2022-11-20T08:54:03;12.60;;;8.30;;
15946;SDS011;8072;52.554;7.966;2022-11-20T08:56:30;15.30;;;8.40;;
15946;SDS011;8072;52.554;7.966;2022-11-20T08:58:56;13.50;;;8.60;;
15946;SDS011;8072;52.554;7.966;2022-11-20T09:01:22;13.40;;;8.57;;
15946;SDS011;8072;52.554;7.966;2022-11-20T09:03:48;14.67;;;8.83;;
15946;SDS011;8072;52.554;7.966;2022-11-20T09:06:15;13.47;;;8.40;;
15946;SDS011;8072;52.554;7.966;2022-11-20T09:08:41;14.73;;;8.70;;
15946;SDS011;8072;52.554;7.966;2022-11-20T09:11:07;15.87;;;9.50;;
15946;SDS011;8072;52.554;7.966;2022-11-20T09:13:34;14.23;;;9.00;;
15946;SDS011;8072;52.554;7.966;2022-11-20T09:16:04;12.77;;;8.33;;
15946;SDS011;8072;52.554;7.966;2022-11-20T09:18:32;14.30;;;7.90;;
15946;SDS011;8072;52.554;7.966;2022-11-20T09:21:01;14.33;;;8.23;;
15946;SDS011;8072;52.554;7.966;2022-11-20T09:23:34;13.20;;;8.03;;
15946;SDS011;8072;52.554;7.966;2022-11-20T09:26:04;14.67;;;8.70;;
15946;SDS011;8072;52.554;7.966;2022-11-20T09:28:31;14.60;;;8.33;;
15946;SDS011;8072;52.554;7.966;2022-11-20T09:30:57;14.53;;;8.77;;
15946;SDS011;8072;52.554;7.966;2022-11-20T09:33:23;14.70;;;8.97;;
15946;SDS011;8072;52.554;7.966;2022-11-20T09:35:48;16.17;;;9.73;;
15946;SDS011;8072;52.554;7.966;2022-11-20T09:38:14;14.40;;;8.97;;
15946;SDS011;8072;52.554;7.966;2022-11-20T09:40:43;14.87;;;8.33;;
15946;SDS011;8072;52.554;7.966;2022-11-20T09:43:27;23.13;;;13.17;;
15946;SDS011;8072;52.554;7.966;2022-11-20T09:54:16;17.43;;;10.53;;
15946;SDS011;8072;52.554;7.966;2022-11-20T09:56:51;16.20;;;9.60;;
15946;SDS011;8072;52.554;7.966;2022-11-20T10:01:58;18.13;;;9.63;;
15946;SDS011;8072;52.554;7.966;2022-11-20T10:04:26;16.57;;;10.30;;
15946;SDS011;8072;52.554;7.966;2022-11-20T10:09:40;18.33;;;10.07;;
15946;SDS011;8072;52.554;7.966;2022-11-20T10:12:21;18.10;;;10.47;;
15946;SDS011;8072;52.554;7.966;2022-11-20T10:15:20;14.53;;;9.27;;
15946;SDS011;8072;52.554;7.966;2022-11-20T10:23:41;16.87;;;10.10;;
15946;SDS011;8072;52.554;7.966;2022-11-20T10:26:25;18.23;;;9.90;;
15946;SDS011;8072;52.554;7.966;2022-11-20T10:29:17;19.43;;;9.80;;
15946;SDS011;8072;52.554;7.966;2022-11-20T10:31:45;15.33;;;10.07;;
15946;SDS011;8072;52.554;7.966;2022-11-20T10:34:58;20.67;;;14.37;;
15946;SDS011;8072;52.554;7.966;2022-11-20T10:37:31;17.67;;;10.90;;
15946;SDS011;8072;52.554;7.966;2022-11-20T10:40:01;22.97;;;10.67;;
15946;SDS011;8072;52.554;7.966;2022-11-20T10:45:10;17.77;;;10.73;;
15946;SDS011;8072;52.554;7.966;2022-11-20T10:47:39;20.03;;;11.93;;
15946;SDS011;8072;52.554;7.966;2022-11-20T10:50:05;16.70;;;10.37;;
15946;SDS011;8072;52.554;7.966;2022-11-20T10:55:16;17.30;;;9.80;;
15946;SDS011;8072;52.554;7.966;2022-11-20T11:00:43;15.63;;;9.83;;
15946;SDS011;8072;52.554;7.966;2022-11-20T11:03:17;19.80;;;10.40;;
15946;SDS011;8072;52.554;7.966;2022-11-20T11:05:50;21.47;;;10.93;;
15946;SDS011;8072;52.554;7.966;2022-11-20T11:08:21;19.37;;;10.47;;
15946;SDS011;8072;52.554;7.966;2022-11-20T11:10:52;17.83;;;10.07;;
15946;SDS011;8072;52.554;7.966;2022-11-20T11:13:22;16.17;;;10.00;;
15946;SDS011;8072;52.554;7.966;2022-11-20T11:15:49;18.93;;;10.90;;
15946;SDS011;8072;52.554;7.966;2022-11-20T11:18:29;17.43;;;11.17;;
15946;SDS011;8072;52.554;7.966;2022-11-20T11:20:57;17.47;;;11.40;;
15946;SDS011;8072;52.554;7.966;2022-11-20T11:26:00;17.07;;;10.00;;
15946;SDS011;8072;52.554;7.966;2022-11-20T11:28:27;20.07;;;11.50;;
15946;SDS011;8072;52.554;7.966;2022-11-20T11:30:53;20.63;;;10.87;;
15946;SDS011;8072;52.554;7.966;2022-11-20T11:33:24;18.80;;;10.67;;
15946;SDS011;8072;52.554;7.966;2022-11-20T11:38:39;19.17;;;11.07;;
15946;SDS011;8072;52.554;7.966;2022-11-20T11:41:20;18.27;;;10.17;;
15946;SDS011;8072;52.554;7.966;2022-11-20T11:43:56;17.20;;;10.40;;
15946;SDS011;8072;52.554;7.966;2022-11-20T11:46:59;17.07;;;10.70;;
15946;SDS011;8072;52.554;7.966;2022-11-20T11:49:25;15.87;;;10.00;;
15946;SDS011;8072;52.554;7.966;2022-11-20T12:00:18;17.13;;;10.63;;
15946;SDS011;8072;52.554;7.966;2022-11-20T12:13:17;22.70;;;10.87;;
15946;SDS011;8072;52.554;7.966;2022-11-20T12:15:49;16.53;;;9.67;;
15946;SDS011;8072;52.554;7.966;2022-11-20T12:18:18;18.73;;;10.50;;
15946;SDS011;8072;52.554;7.966;2022-11-20T12:21:11;15.83;;;9.53;;
15946;SDS011;8072;52.554;7.966;2022-11-20T12:37:41;15.07;;;8.73;;
15946;SDS011;8072;52.554;7.966;2022-11-20T12:46:16;15.70;;;8.60;;
15946;SDS011;8072;52.554;7.966;2022-11-20T12:56:50;15.37;;;8.40;;
15946;SDS011;8072;52.554;7.966;2022-11-20T13:02:27;15.90;;;8.83;;
15946;SDS011;8072;52.554;7.966;2022-11-20T13:05:19;15.80;;;8.03;;
15946;SDS011;8072;52.554;7.966;2022-11-20T13:07:53;19.13;;;8.67;;
15946;SDS011;8072;52.554;7.966;2022-11-20T13:15:57;16.73;;;9.60;;
15946;SDS011;8072;52.554;7.966;2022-11-20T13:18:40;42.60;;;16.87;;
15946;SDS011;8072;52.554;7.966;2022-11-20T13:21:17;25.20;;;11.77;;
15946;SDS011;8072;52.554;7.966;2022-11-20T13:23:45;19.00;;;10.53;;
15946;SDS011;8072;52.554;7.966;2022-11-20T13:26:19;15.77;;;9.33;;
15946;SDS011;8072;52.554;7.966;2022-11-20T13:28:47;15.03;;;8.63;;
15946;SDS011;8072;52.554;7.966;2022-11-20T13:31:30;15.47;;;8.63;;
15946;SDS011;8072;52.554;7.966;2022-11-20T13:33:59;16.57;;;9.87;;
15946;SDS011;8072;52.554;7.966;2022-11-20T13:36:28;79.53;;;27.87;;
15946;SDS011;8072;52.554;7.966;2022-11-20T13:38:56;35.53;;;14.13;;
15946;SDS011;8072;52.554;7.966;2022-11-20T13:41:33;20.57;;;10.70;;
15946;SDS011;8072;52.554;7.966;2022-11-20T13:46:37;25.77;;;12.70;;
15946;SDS011;8072;52.554;7.966;2022-11-20T13:49:09;37.47;;;16.27;;
15946;SDS011;8072;52.554;7.966;2022-11-20T14:00:11;22.53;;;10.47;;
15946;SDS011;8072;52.554;7.966;2022-11-20T14:02:42;20.40;;;11.33;;
15946;SDS011;8072;52.554;7.966;2022-11-20T14:05:49;18.93;;;10.60;;
15946;SDS011;8072;52.554;7.966;2022-11-20T14:08:05;19.37;;;10.40;;
15946;SDS011;8072;52.554;7.966;2022-11-20T14:10:38;20.40;;;11.13;;
15946;SDS011;8072;52.554;7.966;2022-11-20T14:13:15;16.53;;;10.00;;
15946;SDS011;8072;52.554;7.966;2022-11-20T14:15:43;18.97;;;9.93;;
15946;SDS011;8072;52.554;7.966;2022-11-20T14:18:20;24.30;;;11.13;;
15946;SDS011;8072;52.554;7.966;2022-11-20T14:20:47;21.17;;;11.17;;
15946;SDS011;8072;52.554;7.966;2022-11-20T14:23:22;23.43;;;12.17;;
15946;SDS011;8072;52.554;7.966;2022-11-20T14:25:49;21.60;;;10.50;;
15946;SDS011;8072;52.554;7.966;2022-11-20T14:28:33;19.50;;;10.27;;
15946;SDS011;8072;52.554;7.966;2022-11-20T14:30:59;22.80;;;11.13;;
15946;SDS011;8072;52.554;7.966;2022-11-20T14:33:25;21.43;;;9.93;;
15946;SDS011;8072;52.554;7.966;2022-11-20T14:35:55;20.33;;;10.40;;
15946;SDS011;8072;52.554;7.966;2022-11-20T14:38:27;21.27;;;10.07;;
15946;SDS011;8072;52.554;7.966;2022-11-20T14:40:53;19.53;;;9.20;;
15946;SDS011;8072;52.554;7.966;2022-11-20T14:43:23;23.27;;;10.70;;
15946;SDS011;8072;52.554;7.966;2022-11-20T14:45:58;26.53;;;13.03;;
15946;SDS011;8072;52.554;7.966;2022-11-20T14:48:32;22.47;;;11.10;;
15946;SDS011;8072;52.554;7.966;2022-11-20T14:51:09;21.50;;;11.30;;
15946;SDS011;8072;52.554;7.966;2022-11-20T14:53:36;25.80;;;12.80;;
15946;SDS011;8072;52.554;7.966;2022-11-20T14:56:02;30.40;;;13.47;;
15946;SDS011;8072;52.554;7.966;2022-11-20T14:58:32;27.63;;;13.97;;
15946;SDS011;8072;52.554;7.966;2022-11-20T15:01:00;25.47;;;12.83;;
15946;SDS011;8072;52.554;7.966;2022-11-20T15:03:32;24.77;;;13.00;;
15946;SDS011;8072;52.554;7.966;2022-11-20T15:05:59;25.10;;;12.83;;
15946;SDS011;8072;52.554;7.966;2022-11-20T15:08:25;23.67;;;11.50;;
15946;SDS011;8072;52.554;7.966;2022-11-20T15:10:52;25.33;;;12.27;;
15946;SDS011;8072;52.554;7.966;2022-11-20T15:15:55;29.47;;;14.07;;
15946;SDS011;8072;52.554;7.966;2022-11-20T15:20:54;27.80;;;12.47;;
15946;SDS011;8072;52.554;7.966;2022-11-20T15:23:22;21.57;;;11.30;;
15946;SDS011;8072;52.554;7.966;2022-11-20T15:25:49;22.33;;;11.10;;
15946;SDS011;8072;52.554;7.966;2022-11-20T15:28:19;24.27;;;11.33;;
15946;SDS011;8072;52.554;7.966;2022-11-20T15:30:48;20.73;;;10.50;;
15946;SDS011;8072;52.554;7.966;2022-11-20T15:33:15;21.30;;;10.67;;
15946;SDS011;8072;52.554;7.966;2022-11-20T15:35:41;24.33;;;11.00;;
15946;SDS011;8072;52.554;7.966;2022-11-20T15:38:08;24.03;;;10.23;;
15946;SDS011;8072;52.554;7.966;2022-11-20T15:40:33;31.10;;;13.33;;
15946;SDS011;8072;52.554;7.966;2022-11-20T15:42:59;33.57;;;13.63;;
15946;SDS011;8072;52.554;7.966;2022-11-20T15:45:29;33.27;;;15.03;;
15946;SDS011;8072;52.554;7.966;2022-11-20T15:48:01;55.00;;;22.90;;
15946;SDS011;8072;52.554;7.966;2022-11-20T15:50:30;38.73;;;18.30;;
15946;SDS011;8072;52.554;7.966;2022-11-20T15:53:01;38.07;;;16.93;;
15946;SDS011;8072;52.554;7.966;2022-11-20T15:55:27;27.97;;;12.83;;
15946;SDS011;8072;52.554;7.966;2022-11-20T15:57:53;24.37;;;13.37;;
15946;SDS011;8072;52.554;7.966;2022-11-20T16:00:19;26.33;;;13.70;;
15946;SDS011;8072;52.554;7.966;2022-11-20T16:02:45;25.23;;;13.00;;
15946;SDS011;8072;52.554;7.966;2022-11-20T16:05:11;23.20;;;12.37;;
15946;SDS011;8072;52.554;7.966;2022-11-20T16:07:38;23.87;;;12.67;;
15946;SDS011;8072;52.554;7.966;2022-11-20T16:10:04;23.60;;;11.63;;
15946;SDS011;8072;52.554;7.966;2022-11-20T16:12:30;19.70;;;11.20;;
15946;SDS011;8072;52.554;7.966;2022-11-20T16:15:14;19.47;;;10.97;;
15946;SDS011;8072;52.554;7.966;2022-11-20T16:17:59;22.60;;;11.27;;
15946;SDS011;8072;52.554;7.966;2022-11-20T16:20:25;24.17;;;12.17;;
15946;SDS011;8072;52.554;7.966;2022-11-20T16:22:51;20.13;;;10.77;;
15946;SDS011;8072;52.554;7.966;2022-11-20T16:25:16;18.60;;;10.83;;
15946;SDS011;8072;52.554;7.966;2022-11-20T16:27:42;21.03;;;11.30;;
15946;SDS011;8072;52.554;7.966;2022-11-20T16:30:08;23.20;;;13.10;;
15946;SDS011;8072;52.554;7.966;2022-11-20T16:32:34;22.80;;;12.03;;
15946;SDS011;8072;52.554;7.966;2022-11-20T16:35:00;18.37;;;10.30;;
15946;SDS011;8072;52.554;7.966;2022-11-20T16:37:27;24.73;;;11.60;;
15946;SDS011;8072;52.554;7.966;2022-11-20T16:39:53;21.03;;;12.10;;